createdAt,value
2022-11-07T00:03:00.552Z,74.69
2022-11-07T00:07:04.222Z,75.08
2022-11-07T00:11:08.303Z,75.13
2022-11-07T00:15:13.290Z,75.07
2022-11-07T00:19:20.682Z,74.95
2022-11-07T00:23:23.744Z,74.78
2022-11-07T00:27:26.802Z,74.42
2022-11-07T00:31:31.352Z,74.45
2022-11-07T00:35:34.837Z,74.51
2022-11-07T00:39:37.858Z,74.31
2022-11-07T00:43:40.982Z,74.17
2022-11-07T00:47:45.336Z,74.22
2022-11-07T00:51:48.364Z,74.46
2022-11-07T00:55:51.390Z,74.55
2022-11-07T00:59:54.394Z,74.61
2022-11-07T01:04:16.618Z,74.68
2022-11-07T01:08:19.889Z,74.88
2022-11-07T01:12:22.947Z,74.89
2022-11-07T01:16:26.254Z,75.18
2022-11-07T01:20:30.956Z,75.12
2022-11-07T01:24:33.970Z,74.97
2022-11-07T01:28:38.736Z,74.87
2022-11-07T01:32:41.793Z,75.19
2022-11-07T01:36:46.651Z,75.18
2022-11-07T01:41:07.228Z,75.35
2022-11-07T01:45:19.812Z,76.00
2022-11-07T01:49:26.121Z,75.55
2022-11-07T01:53:30.625Z,75.83
2022-11-07T01:57:38.260Z,75.72
2022-11-07T02:01:42.121Z,75.55
2022-11-07T02:05:49.562Z,75.93
2022-11-07T02:09:55.434Z,75.83
2022-11-07T02:13:58.443Z,76.06
2022-11-07T02:18:02.660Z,76.23
2022-11-07T02:22:15.231Z,76.57
2022-11-07T02:26:20.616Z,76.93
2022-11-07T02:30:27.223Z,76.65
2022-11-07T02:34:30.867Z,76.51
2022-11-07T02:38:37.637Z,76.57
2022-11-07T02:42:44.783Z,76.50
2022-11-07T02:46:48.169Z,76.57
2022-11-07T02:50:51.131Z,77.00
2022-11-07T02:54:54.294Z,77.21
2022-11-07T02:58:58.677Z,77.24
2022-11-07T03:03:01.672Z,77.01
2022-11-07T03:07:04.756Z,76.99
2022-11-07T03:11:08.258Z,77.27
2022-11-07T03:15:14.217Z,77.11
2022-11-07T03:19:17.635Z,77.28
2022-11-07T03:23:20.826Z,77.63
2022-11-07T03:27:23.884Z,77.76
2022-11-07T03:31:28.415Z,78.00
2022-11-07T03:35:31.408Z,77.97
2022-11-07T03:39:34.496Z,78.07
2022-11-07T03:43:37.494Z,78.26
2022-11-07T03:47:43.979Z,78.64
2022-11-07T03:51:47.038Z,78.34
2022-11-07T03:55:50.332Z,78.59
2022-11-07T03:59:53.342Z,78.72
2022-11-07T04:03:57.785Z,78.84
2022-11-07T04:08:00.983Z,78.90
2022-11-07T04:12:21.516Z,79.02
2022-11-07T04:16:41.840Z,78.96
2022-11-07T04:20:46.417Z,79.08
2022-11-07T04:24:50.311Z,79.23
2022-11-07T04:28:53.794Z,79.68
2022-11-07T04:33:00.262Z,80.21
2022-11-07T04:37:04.947Z,80.34
2022-11-07T04:41:07.993Z,80.53
2022-11-07T04:45:12.410Z,80.97
2022-11-07T04:49:15.988Z,81.14
2022-11-07T04:53:20.405Z,81.48
2022-11-07T04:57:23.909Z,82.09
2022-11-07T05:01:26.952Z,81.91
2022-11-07T05:05:30.428Z,82.60
2022-11-07T05:09:35.443Z,82.78
2022-11-07T05:13:38.478Z,83.32
2022-11-07T05:17:41.641Z,83.79
2022-11-07T05:21:45.060Z,84.51
2022-11-07T05:25:50.802Z,84.49
2022-11-07T05:29:54.038Z,84.12
2022-11-07T05:33:57.278Z,84.98
2022-11-07T05:38:00.304Z,84.92
2022-11-07T05:42:05.427Z,84.83
2022-11-07T05:46:09.153Z,85.05
2022-11-07T05:50:12.398Z,85.03
2022-11-07T05:54:15.415Z,84.94
2022-11-07T05:58:20.510Z,85.36
2022-11-07T06:02:23.706Z,85.57
2022-11-07T06:06:26.836Z,85.49
2022-11-07T06:10:29.817Z,85.80
2022-11-07T06:14:34.161Z,85.73
2022-11-07T06:18:41.535Z,85.81
2022-11-07T06:22:44.937Z,85.83
2022-11-07T06:26:47.844Z,85.81
2022-11-07T06:30:52.205Z,85.65
2022-11-07T06:34:55.337Z,85.60
2022-11-07T06:38:58.383Z,85.22
2022-11-07T06:43:11.677Z,84.97
2022-11-07T06:47:15.974Z,85.02
2022-11-07T06:51:18.975Z,85.06
2022-11-07T06:55:22.033Z,84.66
2022-11-07T06:59:24.962Z,84.80
2022-11-07T07:03:29.405Z,85.07
2022-11-07T07:07:32.295Z,84.95
2022-11-07T07:11:37.675Z,84.76
2022-11-07T07:15:51.327Z,84.67
2022-11-07T07:19:55.882Z,84.56
2022-11-07T07:23:58.779Z,84.47
2022-11-07T07:28:01.887Z,84.23
2022-11-07T07:32:04.815Z,84.01
2022-11-07T07:36:10.473Z,84.19
2022-11-07T07:40:13.759Z,84.60
2022-11-07T07:44:16.784Z,84.67
2022-11-07T07:48:19.823Z,84.76
2022-11-07T07:52:24.129Z,84.93
2022-11-07T07:56:27.277Z,84.94
2022-11-07T08:00:30.148Z,84.88
2022-11-07T08:04:33.290Z,84.91
2022-11-07T08:08:38.484Z,84.63
2022-11-07T08:12:44.890Z,84.97
2022-11-07T08:16:47.840Z,85.15
2022-11-07T08:20:51.378Z,85.15
2022-11-07T08:24:55.866Z,84.62
2022-11-07T08:28:58.779Z,84.59
2022-11-07T08:33:03.161Z,84.42
2022-11-07T08:37:06.128Z,84.48
2022-11-07T08:41:10.458Z,83.92
2022-11-07T08:45:13.464Z,84.15
2022-11-07T08:49:16.619Z,84.16
2022-11-07T08:53:20.128Z,84.13
2022-11-07T08:57:24.578Z,83.83
2022-11-07T09:01:27.578Z,83.86
2022-11-07T09:05:30.743Z,83.56
2022-11-07T09:09:34.017Z,83.19
2022-11-07T09:13:38.716Z,83.33
2022-11-07T09:17:41.930Z,82.90
2022-11-07T09:21:45.842Z,82.83
2022-11-07T09:25:48.723Z,82.52
2022-11-07T09:29:53.053Z,82.63
2022-11-07T09:33:55.993Z,82.42
2022-11-07T09:37:58.878Z,82.03
2022-11-07T09:42:06.995Z,81.91
2022-11-07T09:46:23.745Z,81.68
2022-11-07T09:50:32.519Z,82.27
2022-11-07T09:54:39.759Z,82.34
2022-11-07T09:58:44.619Z,82.15
2022-11-07T10:02:51.642Z,82.14
2022-11-07T10:06:59.549Z,82.17
2022-11-07T10:11:09.875Z,82.09
2022-11-07T10:15:20.961Z,82.10
2022-11-07T10:19:43.582Z,81.45
2022-11-07T10:24:02.603Z,81.98
2022-11-07T10:28:17.200Z,81.37
2022-11-07T10:32:25.054Z,80.92
2022-11-07T10:36:31.250Z,81.00
2022-11-07T10:40:38.534Z,80.75
2022-11-07T10:44:43.794Z,80.62
2022-11-07T10:48:57.542Z,80.37
2022-11-07T10:53:05.616Z,79.84
2022-11-07T10:57:13.873Z,79.77
2022-11-07T11:01:25.659Z,79.56
2022-11-07T11:05:33.850Z,79.43
2022-11-07T11:09:38.414Z,78.82
2022-11-07T11:13:41.687Z,78.34
2022-11-07T11:17:46.439Z,77.80
2022-11-07T11:21:51.883Z,76.98
2022-11-07T11:26:02.746Z,76.95
2022-11-07T11:30:09.096Z,76.65
2022-11-07T11:34:18.437Z,76.44
2022-11-07T11:38:25.366Z,75.90
2022-11-07T11:42:37.955Z,75.44
2022-11-07T11:46:48.018Z,75.43
2022-11-07T11:50:54.507Z,74.97
2022-11-07T11:54:59.011Z,74.54
2022-11-07T11:59:23.837Z,73.52
2022-11-07T12:03:48.282Z,73.21
2022-11-07T12:08:02.039Z,72.89
2022-11-07T12:12:16.595Z,72.98
2022-11-07T12:16:31.512Z,73.16
2022-11-07T12:20:45.023Z,72.74
2022-11-07T12:24:56.660Z,71.44
2022-11-07T12:29:09.530Z,71.80
2022-11-07T12:33:25.267Z,72.19
2022-11-07T12:37:51.477Z,72.36
2022-11-07T12:41:59.341Z,72.33
2022-11-07T12:46:12.009Z,72.28
2022-11-07T12:50:28.199Z,72.02
2022-11-07T12:54:42.601Z,71.97
2022-11-07T12:58:48.428Z,71.56
2022-11-07T13:03:02.178Z,71.41
2022-11-07T13:07:19.144Z,71.77
2022-11-07T13:11:28.962Z,71.00
2022-11-07T13:15:53.896Z,71.20
2022-11-07T13:20:01.060Z,71.22
2022-11-07T13:24:08.482Z,71.13
2022-11-07T13:28:36.402Z,70.82
2022-11-07T13:32:40.362Z,70.93
2022-11-07T13:36:43.434Z,71.08
2022-11-07T13:40:49.811Z,70.65
2022-11-07T13:44:56.150Z,70.65
2022-11-07T13:49:03.475Z,70.51
2022-11-07T13:53:17.253Z,70.13
2022-11-07T13:57:28.372Z,70.15
2022-11-07T14:01:42.501Z,70.36
2022-11-07T14:05:49.212Z,70.36
2022-11-07T14:09:57.195Z,70.58
2022-11-07T14:14:01.850Z,70.44
2022-11-07T14:18:05.920Z,70.38
2022-11-07T14:22:22.351Z,70.33
2022-11-07T14:26:28.284Z,70.39
2022-11-07T14:30:32.956Z,70.39
2022-11-07T14:34:36.908Z,70.56
2022-11-07T14:38:47.536Z,70.46
2022-11-07T14:42:52.482Z,70.92
2022-11-07T14:46:59.039Z,71.06
2022-11-07T14:51:03.627Z,71.26
2022-11-07T14:55:13.927Z,71.15
2022-11-07T14:59:18.742Z,71.21
2022-11-07T15:03:24.339Z,71.46
2022-11-07T15:07:29.360Z,71.57
2022-11-07T15:11:34.578Z,71.49
2022-11-07T15:15:38.472Z,71.60
2022-11-07T15:19:42.917Z,71.73
2022-11-07T15:23:45.935Z,72.21
2022-11-07T15:27:49.068Z,72.32
2022-11-07T15:31:52.132Z,72.75
2022-11-07T15:35:58.615Z,73.14
2022-11-07T15:40:01.669Z,73.04
2022-11-07T15:44:05.350Z,73.08
2022-11-07T15:48:09.685Z,73.06
2022-11-07T15:52:14.158Z,73.21
2022-11-07T15:56:21.348Z,73.16
2022-11-07T16:00:26.144Z,73.05
2022-11-07T16:04:29.504Z,72.73
2022-11-07T16:08:35.763Z,72.72
2022-11-07T16:12:38.832Z,72.58
2022-11-07T16:16:43.580Z,72.92
2022-11-07T16:20:47.128Z,72.83
2022-11-07T16:24:51.631Z,73.12
2022-11-07T16:28:54.715Z,72.92
2022-11-07T16:32:57.754Z,73.14
2022-11-07T16:37:01.135Z,72.80
2022-11-07T16:41:05.889Z,72.92
2022-11-07T16:45:09.795Z,73.00
2022-11-07T16:49:22.775Z,73.04
2022-11-07T16:53:26.907Z,72.75
2022-11-07T16:57:35.648Z,73.14
2022-11-07T17:01:39.897Z,72.87
2022-11-07T17:05:43.489Z,72.79
2022-11-07T17:09:46.600Z,72.93
2022-11-07T17:13:51.131Z,72.86
2022-11-07T17:17:58.788Z,72.86
2022-11-07T17:22:03.469Z,73.09
2022-11-07T17:26:07.165Z,73.30
2022-11-07T17:30:18.179Z,73.14
2022-11-07T17:34:21.504Z,73.01
2022-11-07T17:38:25.741Z,73.16
2022-11-07T17:42:30.677Z,73.70
2022-11-07T17:46:43.231Z,73.83
2022-11-07T17:50:46.362Z,73.88
2022-11-07T17:54:50.199Z,74.32
2022-11-07T17:58:55.307Z,74.16
2022-11-07T18:02:59.944Z,74.17
2022-11-07T18:07:03.457Z,74.36
2022-11-07T18:11:07.743Z,74.48
2022-11-07T18:15:17.134Z,74.54
2022-11-07T18:19:21.637Z,74.53
2022-11-07T18:23:25.420Z,75.06
2022-11-07T18:27:28.456Z,75.09
2022-11-07T18:31:31.909Z,75.40
2022-11-07T18:35:36.315Z,75.15
2022-11-07T18:39:39.866Z,74.98
2022-11-07T18:43:42.933Z,75.33
2022-11-07T18:47:46.057Z,75.09
2022-11-07T18:51:50.500Z,75.37
2022-11-07T18:55:58.571Z,75.25
2022-11-07T19:00:01.628Z,75.36
2022-11-07T19:04:07.552Z,75.18
2022-11-07T19:08:12.033Z,75.36
2022-11-07T19:12:15.288Z,75.79
2022-11-07T19:16:19.740Z,75.77
2022-11-07T19:20:23.061Z,76.15
2022-11-07T19:24:27.509Z,76.16
2022-11-07T19:28:30.775Z,76.24
2022-11-07T19:32:33.782Z,76.38
2022-11-07T19:36:37.155Z,76.31
2022-11-07T19:40:41.979Z,76.25
2022-11-07T19:44:50.463Z,76.91
2022-11-07T19:48:56.774Z,76.90
2022-11-07T19:53:00.019Z,76.66
2022-11-07T19:57:04.552Z,76.68
2022-11-07T20:01:12.349Z,76.87
2022-11-07T20:05:23.993Z,77.12
2022-11-07T20:09:27.187Z,76.90
2022-11-07T20:13:31.718Z,76.99
2022-11-07T20:17:34.845Z,76.58
2022-11-07T20:21:38.609Z,76.77
2022-11-07T20:25:42.227Z,76.71
2022-11-07T20:29:46.639Z,76.82
2022-11-07T20:33:50.013Z,76.82
2022-11-07T20:37:53.236Z,77.00
2022-11-07T20:41:56.314Z,76.94
2022-11-07T20:46:06.534Z,76.83
2022-11-07T20:50:10.042Z,76.40
2022-11-07T20:54:13.747Z,76.61
2022-11-07T20:58:17.068Z,76.87
2022-11-07T21:02:21.543Z,76.46
2022-11-07T21:06:24.820Z,76.46
2022-11-07T21:10:28.028Z,76.23
2022-11-07T21:14:31.115Z,76.35
2022-11-07T21:18:35.885Z,76.55
2022-11-07T21:22:39.058Z,76.71
2022-11-07T21:26:43.314Z,76.81
2022-11-07T21:30:54.530Z,76.80
2022-11-07T21:34:58.983Z,76.91
2022-11-07T21:39:03.472Z,76.92
2022-11-07T21:43:06.831Z,76.74
2022-11-07T21:47:09.898Z,76.54
2022-11-07T21:51:16.728Z,76.28
2022-11-07T21:55:20.136Z,76.28
2022-11-07T21:59:23.394Z,76.39
2022-11-07T22:03:51.144Z,76.29
2022-11-07T22:07:51.482Z,76.53
2022-11-07T22:11:54.712Z,76.68
2022-11-07T22:16:04.087Z,76.55
2022-11-07T22:20:08.440Z,76.19
2022-11-07T22:24:12.958Z,76.51
2022-11-07T22:28:15.983Z,76.74
2022-11-07T22:32:19.021Z,76.87
2022-11-07T22:36:22.462Z,76.92
2022-11-07T22:40:26.984Z,77.20
2022-11-07T22:44:30.494Z,77.21
2022-11-07T22:48:34.397Z,77.82
2022-11-07T22:52:37.654Z,78.07
2022-11-07T22:56:42.357Z,77.87
2022-11-07T23:00:45.414Z,77.32
2022-11-07T23:04:48.450Z,77.14
2022-11-07T23:08:52.305Z,77.15
2022-11-07T23:12:56.739Z,77.05
2022-11-07T23:16:59.835Z,77.35
2022-11-07T23:21:12.177Z,77.37
2022-11-07T23:25:15.434Z,77.31
2022-11-07T23:29:22.944Z,77.44
2022-11-07T23:33:26.159Z,77.48
2022-11-07T23:37:29.285Z,77.46
2022-11-07T23:41:32.381Z,77.54
2022-11-07T23:45:54.222Z,77.71
2022-11-07T23:50:14.707Z,77.80
2022-11-07T23:54:35.197Z,77.37
2022-11-07T23:58:55.425Z,77.54
